Time;durP1;ratioP1;P1;durP2;ratioP2;P2;SDS_P1;SDS_P2;PMS_P1;PMS_P2;Temp;Humidity;BMP_temperature;BMP_pressure;BME280_temperature;BME280_humidity;BME280_pressure;Samples;Min_cycle;Max_cycle;Signal;HPM_P1;HPM_P2
2021/11/01 09:24:38;;;;;;;22.55;16.60;;;;;;;21.64;38.88;100105.25;5106713;28;20043;-58
2021/11/01 09:27:07;;;;;;;23.35;18.92;;;;;;;21.94;37.99;100102.19;5105812;28;20047;-59
2021/11/01 09:43:04;;;;;;;31.73;18.85;;;;;;;17.13;44.18;100084.13;5106760;28;20089;-60
2021/11/01 09:45:34;;;;;;;26.42;17.70;;;;;;;16.38;45.27;100092.50;5100117;28;20054;-62
2021/11/01 09:48:00;;;;;;;33.85;18.90;;;;;;;15.89;46.40;100090.66;5105949;28;20032;-61
2021/11/01 09:50:26;;;;;;;32.20;19.05;;;;;;;15.55;47.17;100092.31;5106183;28;20133;-61
2021/11/01 09:52:57;;;;;;;34.78;17.98;;;;;;;15.17;48.15;100093.25;5105737;28;20204;-61
2021/11/01 10:00:40;;;;;;;26.17;17.33;;;;;;;14.08;50.48;100066.72;5102723;28;20052;-52
2021/11/01 10:03:06;;;;;;;28.52;17.73;;;;;;;13.89;51.42;100079.72;5103915;28;20039;-53
2021/11/01 10:05:35;;;;;;;28.73;17.33;;;;;;;13.60;52.12;100085.28;5105990;28;20035;-52
2021/11/01 10:08:01;;;;;;;33.73;17.20;;;;;;;13.30;52.81;100071.66;5104527;28;20462;-59
2021/11/01 10:10:30;;;;;;;28.25;17.48;;;;;;;12.87;53.78;100075.06;5101072;28;20127;-57
2021/11/01 10:12:56;;;;;;;;;;;;;;;12.72;54.15;100072.09;5097165;28;20131;-58
2021/11/01 10:18:17;;;;;;;27.80;16.05;;;;;;;12.36;55.72;100069.94;5096331;28;20150;-56
2021/11/01 10:21:00;;;;;;;31.45;16.70;;;;;;;12.17;56.66;100077.56;5104057;28;20035;-55
2021/11/01 10:23:30;;;;;;;32.47;17.83;;;;;;;12.17;56.88;100075.81;5105122;28;20035;-58
2021/11/01 10:26:15;;;;;;;28.77;16.35;;;;;;;13.65;54.13;100067.66;5097935;28;20062;-72
2021/11/01 10:28:53;;;;;;;31.60;16.05;;;;;;;15.62;49.68;100067.50;5078567;28;20060;-72
2021/11/01 10:31:25;;;;;;;25.30;15.40;;;;;;;16.87;47.03;100067.16;5103563;28;20047;-70
2021/11/01 10:34:06;;;;;;;25.08;15.27;;;;;;;18.08;44.62;100067.31;5072479;28;20047;-63
2021/11/01 10:36:38;;;;;;;26.77;15.35;;;;;;;19.00;43.10;100068.69;5082594;28;20039;-59
2021/11/01 10:39:09;;;;;;;25.52;15.27;;;;;;;19.85;41.69;100070.25;5091205;28;20396;-63
2021/11/01 10:41:52;;;;;;;26.65;16.98;;;;;;;20.58;40.23;100063.50;5092418;28;20126;-67
2021/11/01 11:12:51;;;;;;;24.75;18.75;;;;;;;23.64;32.91;100049.00;5071704;28;20424;-64
2021/11/01 11:15:11;;;;;;;30.98;20.67;;;;;;;23.86;32.72;100048.06;5080226;28;20050;-67
2021/11/01 11:21:28;;;;;;;25.98;18.30;;;;;;;24.04;31.97;100049.16;5090633;28;20040;-71
2021/11/01 11:44:00;;;;;;;32.20;20.27;;;;;;;19.29;37.54;100029.09;5071258;28;20032;-51
2021/11/01 11:49:15;;;;;;;26.35;19.55;;;;;;;18.93;38.27;100027.03;5088086;28;20097;-50
2021/11/01 11:51:58;;;;;;;31.90;19.90;;;;;;;19.04;38.30;100028.03;5087616;28;20477;-55
2021/11/01 11:54:42;;;;;;;33.60;19.70;;;;;;;18.83;38.62;100021.50;5090505;28;20046;-56
2021/11/01 11:57:25;;;;;;;26.73;17.95;;;;;;;18.12;39.92;100016.19;5087684;28;20408;-59
2021/11/01 11:59:54;;;;;;;30.58;19.27;;;;;;;18.41;39.71;100017.06;5082838;28;20118;-57
2021/11/01 12:02:43;;;;;;;32.35;19.50;;;;;;;18.59;39.53;100020.38;5091076;28;20035;-52
2021/11/01 12:05:27;;;;;;;27.35;18.95;;;;;;;18.30;40.05;100023.91;5072838;28;20592;-53
2021/11/01 12:13:51;;;;;;;29.30;18.10;;;;;;;17.82;40.83;100014.53;5090291;28;20032;-53
2021/11/01 12:19:02;;;;;;;28.80;17.80;;;;;;;16.34;43.56;100019.25;5086763;28;20182;-54
2021/11/01 12:21:28;;;;;;;30.83;19.13;;;;;;;15.72;44.76;100002.34;5090744;28;20039;-56
2021/11/01 12:23:54;;;;;;;30.88;17.23;;;;;;;15.71;45.12;100010.28;5089476;28;20043;-52
2021/11/01 12:26:23;;;;;;;30.55;18.58;;;;;;;15.65;45.07;100012.28;5087686;28;20482;-59
2021/11/01 12:28:56;;;;;;;30.98;18.05;;;;;;;15.62;45.51;100011.59;5090735;28;20035;-56
2021/11/01 12:31:22;;;;;;;32.38;17.90;;;;;;;15.57;45.85;100017.09;5089221;28;20048;-56
2021/11/01 12:34:14;;;;;;;30.48;17.88;;;;;;;15.74;45.55;100018.03;5089250;28;20032;-54
2021/11/01 12:39:48;;;;;;;29.58;19.08;;;;;;;15.72;45.95;100017.22;5088138;28;20040;-53
2021/11/01 12:58:37;;;;;;;30.02;18.05;;;;;;;14.20;49.39;100014.75;5089302;28;20052;-53
2021/11/01 13:01:11;;;;;;;32.35;19.27;;;;;;;13.84;50.30;99991.03;5101810;28;20039;-55
2021/11/01 13:03:38;;;;;;;38.22;18.73;;;;;;;13.63;51.09;100004.16;5126508;27;20426;-55
2021/11/01 13:06:08;;;;;;;42.55;18.63;;;;;;;13.44;51.31;99998.84;5109405;28;20130;-54
2021/11/01 13:08:50;;;;;;;35.80;18.25;;;;;;;13.11;52.26;99985.34;5061508;28;20082;-55
2021/11/01 13:19:20;;;;;;;34.75;18.30;;;;;;;12.07;55.82;100011.91;5070409;28;20045;-52
2021/11/01 13:21:57;;;;;;;37.53;19.13;;;;;;;11.86;56.02;100010.88;5083134;28;20131;-57
2021/11/01 13:24:44;;;;;;;33.40;19.20;;;;;;;11.60;56.76;100010.88;5089689;28;20118;-56
2021/11/01 13:38:51;;;;;;;41.08;19.58;;;;;;;10.26;63.18;100019.31;5103968;28;20044;-57
2021/11/01 13:41:29;;;;;;;47.20;18.67;;;;;;;10.09;63.88;100021.50;5084515;28;20040;-55
2021/11/01 13:44:09;;;;;;;32.85;16.67;;;;;;;9.90;65.13;100028.06;5076657;28;20045;-56
2021/11/01 13:46:44;;;;;;;36.72;18.98;;;;;;;9.78;65.45;100024.06;5087872;28;20091;-53
2021/11/01 13:49:11;;;;;;;38.30;19.63;;;;;;;9.63;66.42;100019.28;5100521;28;20463;-55
2021/11/01 13:51:38;;;;;;;33.22;18.42;;;;;;;9.48;66.41;100009.25;5096931;28;20040;-55
2021/11/01 13:54:16;;;;;;;36.95;20.17;;;;;;;9.45;67.02;100017.97;5087642;28;20067;-52
2021/11/01 13:56:47;;;;;;;38.13;20.63;;;;;;;9.34;67.47;100026.00;5087927;28;20036;-55
2021/11/01 13:59:36;;;;;;;40.63;20.15;;;;;;;9.26;68.47;100025.31;5073513;28;20048;-51
2021/11/01 14:29:06;;;;;;;45.42;20.55;;;;;;;8.52;72.62;100011.44;5071861;28;20068;-52
2021/11/01 15:02:13;;;;;;;38.13;19.20;;;;;;;7.78;77.36;100015.44;5111501;28;20074;-53
2021/11/01 16:19:40;;;;;;;42.25;21.83;;;;;;;6.52;92.29;100022.53;5086466;28;20040;-50
2021/11/01 16:22:08;;;;;;;43.20;23.60;;;;;;;6.48;92.05;100026.88;5089864;28;20048;-55
2021/11/01 16:24:35;;;;;;;41.95;21.52;;;;;;;6.48;92.34;100026.88;5071714;28;20132;-61
2021/11/01 16:27:02;;;;;;;49.70;23.98;;;;;;;6.42;92.00;100016.63;5095097;28;20046;-50
2021/11/01 16:29:47;;;;;;;41.08;22.70;;;;;;;6.46;92.25;100033.78;5088205;28;20051;-54
2021/11/01 16:32:25;;;;;;;45.55;22.90;;;;;;;6.43;92.51;100031.25;5085247;28;20216;-52
2021/11/01 16:34:55;;;;;;;54.05;24.63;;;;;;;6.37;93.03;100028.75;5070392;28;20055;-51
2021/11/01 16:37:37;;;;;;;47.78;23.38;;;;;;;6.32;93.77;100023.63;5085013;28;20036;-54
2021/11/01 16:40:10;;;;;;;50.35;25.98;;;;;;;6.28;94.60;100028.84;5088475;28;20268;-51
2021/11/01 16:42:38;;;;;;;54.40;24.52;;;;;;;6.16;95.29;100010.91;5069004;28;20047;-52
2021/11/01 16:45:14;;;;;;;50.80;24.73;;;;;;;6.22;94.90;100019.47;5078014;28;20074;-50
2021/11/01 16:47:41;;;;;;;47.67;23.85;;;;;;;6.11;95.35;100005.81;5088283;28;20396;-48
2021/11/01 16:50:10;;;;;;;43.03;25.10;;;;;;;6.19;95.35;100026.34;5088731;28;20036;-49
2021/11/01 16:52:37;;;;;;;48.63;25.35;;;;;;;6.10;95.71;100010.97;5052030;28;20543;-53
2021/11/01 16:55:09;;;;;;;48.53;23.77;;;;;;;6.17;95.18;100026.41;5071527;28;20040;-49
2021/11/01 16:57:42;;;;;;;55.03;25.38;;;;;;;6.11;95.24;100023.88;5088800;28;20039;-50
2021/11/01 17:06:07;;;;;;;56.63;24.50;;;;;;;6.06;95.45;100024.81;5080104;28;20154;-57
2021/11/01 17:36:52;;;;;;;56.13;25.42;;;;;;;5.66;95.34;100027.72;5073409;28;20036;-61
2021/11/01 18:51:04;;;;;;;55.60;27.60;;;;;;;7.42;85.97;100037.63;5083622;28;20525;-60
2021/11/01 18:53:39;;;;;;;59.03;27.83;;;;;;;7.48;85.41;100045.28;5075019;28;20054;-63
2021/11/01 18:56:11;;;;;;;60.38;28.30;;;;;;;7.52;84.99;100052.97;5067569;28;20066;-62
2021/11/01 18:58:41;;;;;;;66.75;28.67;;;;;;;7.54;84.68;100051.19;5077882;28;20569;-60
2021/11/01 19:01:11;;;;;;;72.80;28.08;;;;;;;7.54;84.54;100055.50;5080922;28;20560;-65
2021/11/01 19:03:43;;;;;;;66.82;27.98;;;;;;;7.45;84.26;100041.00;5089676;28;20052;-62
2021/11/01 19:06:23;;;;;;;59.20;26.50;;;;;;;7.53;84.38;100057.28;5068089;28;20135;-62
2021/11/01 19:17:52;;;;;;;71.15;26.77;;;;;;;7.20;84.13;100022.44;5093967;28;20036;-62
2021/11/01 20:04:06;;;;;;;64.28;27.63;;;;;;;7.68;83.17;100076.88;5073267;28;20570;-60
2021/11/01 21:26:51;;;;;;;72.10;29.38;;;;;;;7.51;82.80;100082.31;5088659;28;20047;-63
2021/11/01 21:29:17;;;;;;;64.50;29.40;;;;;;;7.46;82.90;100086.69;5086883;28;20032;-61
2021/11/01 21:31:43;;;;;;;56.75;27.95;;;;;;;7.37;83.11;100067.88;5087654;28;20097;-61
2021/11/01 21:34:14;;;;;;;78.03;29.35;;;;;;;7.46;83.22;100081.53;5087941;28;20126;-62
2021/11/01 21:36:40;;;;;;;71.20;29.48;;;;;;;7.48;83.09;100074.59;5070004;28;20058;-62
2021/11/01 21:39:08;;;;;;;62.75;29.05;;;;;;;7.47;83.31;100072.88;5088624;28;20134;-62
2021/11/01 21:41:33;;;;;;;132.13;30.15;;;;;;;7.47;83.32;100070.28;5089541;28;20143;-61
2021/11/01 21:43:59;;;;;;;59.47;29.35;;;;;;;7.47;82.94;100072.88;5067151;28;20044;-60
2021/11/01 21:46:25;;;;;;;82.18;29.63;;;;;;;7.47;83.60;100072.03;5089091;28;20048;-61
2021/11/01 21:48:51;;;;;;;63.72;27.38;;;;;;;7.49;83.72;100072.84;5088322;28;20036;-61
2021/11/01 21:51:17;;;;;;;95.55;29.67;;;;;;;7.41;83.28;100057.44;5082694;28;20036;-61
2021/11/01 21:53:51;;;;;;;70.43;29.98;;;;;;;7.51;83.37;100074.53;5086726;28;20576;-61
2021/11/01 21:56:17;;;;;;;60.60;29.30;;;;;;;7.52;83.19;100075.41;5089328;28;20040;-63
2021/11/01 22:09:41;;;;;;;62.80;27.35;;;;;;;7.50;83.51;100074.56;5087521;28;20155;-62
2021/11/01 22:17:52;;;;;;;82.28;30.15;;;;;;;7.41;83.18;100051.41;5067653;28;20133;-63
2021/11/01 22:20:24;;;;;;;57.38;28.13;;;;;;;7.49;83.45;100071.09;5086959;28;20039;-63
2021/11/01 22:25:22;;;;;;;54.33;26.45;;;;;;;7.44;83.30;100065.16;5068100;28;20044;-62
2021/11/01 22:39:21;;;;;;;54.58;26.65;;;;;;;7.46;83.32;100065.13;5032677;28;20267;-63
2021/11/01 22:44:45;;;;;;;51.05;27.17;;;;;;;7.49;82.95;100065.06;5066506;28;20045;-59
2021/11/01 22:58:19;;;;;;;60.15;26.10;;;;;;;7.32;83.06;100057.59;5059805;28;20044;-61
2021/11/01 23:00:50;;;;;;;56.90;28.02;;;;;;;7.33;83.16;100064.47;5083929;28;20525;-61
2021/11/01 23:03:34;;;;;;;72.25;28.08;;;;;;;7.33;83.23;100069.63;5090821;28;20036;-62
2021/11/01 23:33:37;;;;;;;62.28;27.60;;;;;;;7.38;83.02;100052.31;5073071;28;20529;-62
2021/11/01 23:36:03;;;;;;;50.13;25.55;;;;;;;7.38;82.90;100051.50;5063566;28;20044;-61
2021/11/01 23:38:29;;;;;;;63.95;27.00;;;;;;;7.28;82.78;100036.97;5088697;28;20044;-62
2021/11/01 23:40:55;;;;;;;56.30;26.85;;;;;;;7.33;82.45;100051.53;5071501;28;20566;-62
2021/11/01 23:43:21;;;;;;;59.78;25.77;;;;;;;7.35;82.70;100062.72;5070138;28;20044;-60
2021/11/01 23:45:47;;;;;;;54.63;25.75;;;;;;;7.32;82.31;100064.50;5079584;28;20046;-60
2021/11/01 23:48:15;;;;;;;69.25;26.15;;;;;;;7.22;82.39;100040.53;5081797;28;20044;-59
2021/11/01 23:50:42;;;;;;;64.45;26.65;;;;;;;7.33;82.16;100064.47;5078624;28;20080;-60
2021/11/01 23:53:14;;;;;;;62.97;26.05;;;;;;;7.32;82.08;100046.41;5102201;28;20052;-61
2021/11/01 23:55:42;;;;;;;58.45;25.05;;;;;;;7.21;82.40;100039.66;5090384;28;20254;-61
2021/11/01 23:58:08;;;;;;;55.45;25.48;;;;;;;7.27;82.34;100041.31;5072349;28;20050;-60
